Time;durP1;ratioP1;P1;durP2;ratioP2;P2;SDS_P1;SDS_P2;PMS_P1;PMS_P2;Temp;Humidity;BMP_temperature;BMP_pressure;BME280_temperature;BME280_humidity;BME280_pressure;Samples;Min_cycle;Max_cycle;Signal;HPM_P1;HPM_P2
2022/08/11 00:01:20;;;;;;;11.73;9.10;;;;;;;;;;5021947;28;20547;-75
2022/08/11 00:03:47;;;;;;;12.27;7.82;;;;;;;;;;5023947;28;20287;-74
2022/08/11 00:06:14;;;;;;;13.10;7.97;;;;;;;;;;5035955;28;20181;-74
2022/08/11 00:08:40;;;;;;;11.15;8.73;;;;;;;;;;5022014;28;20524;-73
2022/08/11 00:11:08;;;;;;;13.15;9.50;;;;;;;;;;5035831;28;20467;-74
2022/08/11 00:13:38;;;;;;;11.90;9.00;;;;;;;;;;5019604;28;20051;-74
2022/08/11 00:16:09;;;;;;;11.55;8.85;;;;;;;;;;5021795;28;20585;-73
2022/08/11 00:18:54;;;;;;;13.38;9.40;;;;;;;;;;5021439;28;20890;-74
2022/08/11 00:21:21;;;;;;;11.95;8.57;;;;;;;;;;5022517;28;20560;-74
2022/08/11 00:24:07;;;;;;;15.45;9.00;;;;;;;;;;5034392;28;20088;-74
2022/08/11 00:26:38;;;;;;;15.63;9.23;;;;;;;;;;5019855;28;20578;-75
2022/08/11 00:29:10;;;;;;;16.52;9.05;;;;;;;;;;5033417;28;20032;-73
2022/08/11 00:31:36;;;;;;;12.00;9.90;;;;;;;;;;5036468;28;20037;-73
2022/08/11 00:34:09;;;;;;;12.75;9.20;;;;;;;;;;5022433;28;20133;-73
2022/08/11 00:36:55;;;;;;;13.30;9.15;;;;;;;;;;5019093;28;20040;-73
2022/08/11 00:39:22;;;;;;;13.68;9.10;;;;;;;;;;5023205;28;20125;-74
2022/08/11 00:41:49;;;;;;;14.10;8.95;;;;;;;;;;5036176;28;20041;-74
2022/08/11 00:44:23;;;;;;;11.57;9.07;;;;;;;;;;5020510;28;20364;-73
2022/08/11 00:46:51;;;;;;;11.95;8.98;;;;;;;;;;5020407;28;20048;-73
2022/08/11 00:49:36;;;;;;;14.32;8.80;;;;;;;;;;5019919;28;20036;-74
2022/08/11 00:52:20;;;;;;;12.07;8.50;;;;;;;;;;5020228;28;20093;-74
2022/08/11 00:54:48;;;;;;;13.75;9.35;;;;;;;;;;5018213;28;20120;-74
2022/08/11 00:57:20;;;;;;;10.98;9.00;;;;;;;;;;5020172;28;20101;-73
2022/08/11 00:59:46;;;;;;;;;;;;;;;;;;5018773;28;20400;-74
2022/08/11 01:02:12;;;;;;;12.40;9.73;;;;;;;;;;5022353;28;19916;-74
2022/08/11 01:04:56;;;;;;;13.27;9.60;;;;;;;;;;5019610;28;20040;-73
2022/08/11 01:07:27;;;;;;;11.57;10.13;;;;;;;;;;5021482;28;20196;-73
2022/08/11 01:09:59;;;;;;;13.43;9.95;;;;;;;;;;5020385;28;20126;-72
2022/08/11 01:12:24;;;;;;;14.55;10.10;;;;;;;;;;5035549;28;20043;-74
2022/08/11 01:14:56;;;;;;;14.00;9.60;;;;;;;;;;5018517;28;20280;-74
2022/08/11 01:17:28;;;;;;;11.43;9.55;;;;;;;;;;5030323;28;20032;-79
2022/08/11 01:20:02;;;;;;;12.95;9.80;;;;;;;;;;5043741;28;20090;-80
2022/08/11 01:22:39;;;;;;;15.18;11.40;;;;;;;;;;5039478;28;20029;-80
2022/08/11 01:25:17;;;;;;;12.23;9.73;;;;;;;;;;5040162;28;20391;-80
2022/08/11 01:28:13;;;;;;;16.75;10.65;;;;;;;;;;5039322;28;20633;-80
2022/08/11 01:30:39;;;;;;;13.05;10.70;;;;;;;;;;5038017;28;20484;-80
2022/08/11 01:33:23;;;;;;;13.85;10.95;;;;;;;;;;5057388;28;20157;-79
2022/08/11 01:36:00;;;;;;;17.40;10.63;;;;;;;;;;5042023;28;20056;-80
2022/08/11 01:38:37;;;;;;;14.23;10.70;;;;;;;;;;5040576;28;20856;-80
2022/08/11 01:41:13;;;;;;;15.38;10.88;;;;;;;;;;5026360;28;20060;-73
2022/08/11 01:46:31;;;;;;;14.95;12.15;;;;;;;;;;5019810;28;20178;-74
2022/08/11 01:49:08;;;;;;;15.27;11.90;;;;;;;;;;5018947;28;20092;-74
2022/08/11 01:51:37;;;;;;;15.35;10.98;;;;;;;;;;5019751;28;20793;-74
2022/08/11 01:54:02;;;;;;;14.60;11.60;;;;;;;;;;5019333;28;20390;-74
2022/08/11 01:56:47;;;;;;;14.50;11.95;;;;;;;;;;5020995;28;20040;-73
2022/08/11 01:59:15;;;;;;;14.23;11.88;;;;;;;;;;5017332;28;20130;-74
2022/08/11 02:01:43;;;;;;;16.27;13.23;;;;;;;;;;5019309;28;20146;-74
2022/08/11 02:04:32;;;;;;;16.80;12.73;;;;;;;;;;5019607;28;20131;-73
2022/08/11 02:07:07;;;;;;;16.00;13.25;;;;;;;;;;5017066;27;20040;-74
2022/08/11 02:09:40;;;;;;;17.00;12.88;;;;;;;;;;5018269;28;20079;-73
2022/08/11 02:12:29;;;;;;;15.40;12.52;;;;;;;;;;5028290;28;20211;-74
2022/08/11 02:15:01;;;;;;;17.65;13.75;;;;;;;;;;4997968;28;20029;-74
2022/08/11 02:17:47;;;;;;;14.85;12.73;;;;;;;;;;5024289;28;20132;-73
2022/08/11 02:26:13;;;;;;;15.05;12.13;;;;;;;;;;5023502;28;20041;-73
2022/08/11 02:28:57;;;;;;;13.82;12.10;;;;;;;;;;5025668;28;20562;-73
2022/08/11 02:34:19;;;;;;;16.60;13.30;;;;;;;;;;5022499;28;20139;-73
2022/08/11 02:36:51;;;;;;;14.85;13.20;;;;;;;;;;5021111;28;20029;-74
2022/08/11 02:39:18;;;;;;;17.83;14.13;;;;;;;;;;5023085;28;20197;-73
2022/08/11 02:42:21;;;;;;;16.02;13.20;;;;;;;;;;5022234;28;20457;-73
2022/08/11 02:44:56;;;;;;;15.73;13.30;;;;;;;;;;5019410;28;20576;-73
2022/08/11 02:47:40;;;;;;;17.17;13.40;;;;;;;;;;5021171;28;21190;-73
2022/08/11 02:50:19;;;;;;;14.60;13.10;;;;;;;;;;5022481;28;20298;-73
2022/08/11 02:52:48;;;;;;;17.83;13.70;;;;;;;;;;5020478;28;20033;-74
2022/08/11 02:55:19;;;;;;;18.83;13.80;;;;;;;;;;5036401;28;20124;-73
2022/08/11 02:57:58;;;;;;;16.73;13.65;;;;;;;;;;5023187;28;20020;-73
2022/08/11 03:00:25;;;;;;;19.17;13.35;;;;;;;;;;5026935;28;20052;-75
2022/08/11 03:03:04;;;;;;;17.73;14.38;;;;;;;;;;5023011;28;20029;-73
2022/08/11 03:05:33;;;;;;;15.57;13.38;;;;;;;;;;5020707;28;20055;-72
2022/08/11 03:08:01;;;;;;;18.35;13.68;;;;;;;;;;5011199;28;21589;-73
2022/08/11 03:16:43;;;;;;;16.27;13.27;;;;;;;;;;5025625;28;20036;-73
2022/08/11 03:16:47;;;;;;;14.73;13.15;;;;;;;;;;5011431;28;20072;-73
2022/08/11 03:19:27;;;;;;;17.33;14.05;;;;;;;;;;5010915;28;20749;-74
2022/08/11 03:22:11;;;;;;;17.50;14.45;;;;;;;;;;5014801;28;20052;-72
2022/08/11 03:24:45;;;;;;;18.60;14.65;;;;;;;;;;5009246;28;20290;-72
2022/08/11 03:27:13;;;;;;;17.42;13.63;;;;;;;;;;5009815;28;20053;-72
2022/08/11 03:30:08;;;;;;;20.08;13.82;;;;;;;;;;5011718;28;22620;-73
2022/08/11 03:32:37;;;;;;;18.30;14.57;;;;;;;;;;4990569;28;20084;-80
2022/08/11 03:35:04;;;;;;;21.15;14.88;;;;;;;;;;5039567;28;20251;-80
2022/08/11 03:43:21;;;;;;;22.85;15.55;;;;;;;;;;5009464;28;20033;-72
2022/08/11 03:45:47;;;;;;;19.85;15.32;;;;;;;;;;5010058;28;20048;-73
2022/08/11 03:48:18;;;;;;;19.92;14.40;;;;;;;;;;5009611;28;20196;-73
2022/08/11 03:50:50;;;;;;;17.35;15.15;;;;;;;;;;5017273;28;20036;-73
2022/08/11 03:53:17;;;;;;;20.05;16.27;;;;;;;;;;5010637;28;20544;-74
2022/08/11 03:56:01;;;;;;;17.45;15.15;;;;;;;;;;5009363;28;20652;-72
2022/08/11 03:58:56;;;;;;;18.27;15.75;;;;;;;;;;5009133;28;20987;-74
2022/08/11 04:01:40;;;;;;;18.10;14.68;;;;;;;;;;5008858;28;20501;-74
2022/08/11 04:04:06;;;;;;;21.27;15.43;;;;;;;;;;5008609;28;20649;-74
2022/08/11 04:06:34;;;;;;;18.75;13.85;;;;;;;;;;5009477;28;20257;-73
2022/08/11 04:09:00;;;;;;;18.48;14.60;;;;;;;;;;5008913;28;20715;-73
2022/08/11 04:11:40;;;;;;;18.83;14.65;;;;;;;;;;5008011;28;20037;-73
2022/08/11 04:17:27;;;;;;;18.58;15.10;;;;;;;;;;5008753;28;20162;-73
2022/08/11 04:20:16;;;;;;;19.58;14.88;;;;;;;;;;5008338;28;20409;-72
2022/08/11 04:23:05;;;;;;;19.80;15.25;;;;;;;;;;5022397;28;20115;-72
2022/08/11 04:25:33;;;;;;;18.98;15.77;;;;;;;;;;5009248;28;20273;-72
2022/08/11 04:28:09;;;;;;;19.37;15.17;;;;;;;;;;5008480;28;20250;-72
2022/08/11 04:30:40;;;;;;;22.10;16.20;;;;;;;;;;5008794;28;20074;-72
2022/08/11 04:33:24;;;;;;;24.60;16.52;;;;;;;;;;5006551;28;20076;-72
2022/08/11 04:35:56;;;;;;;20.50;15.60;;;;;;;;;;5023278;28;20029;-71
2022/08/11 04:38:42;;;;;;;20.88;16.20;;;;;;;;;;5020653;28;20032;-71
2022/08/11 04:41:26;;;;;;;19.75;16.27;;;;;;;;;;4985519;28;20382;-72
2022/08/11 04:44:27;;;;;;;23.17;16.58;;;;;;;;;;5007192;28;20520;-72
2022/08/11 04:47:11;;;;;;;18.40;15.13;;;;;;;;;;4941147;28;20039;-72
2022/08/11 05:04:03;;;;;;;18.35;15.13;;;;;;;;;;5007020;28;20041;-73
2022/08/11 05:06:47;;;;;;;18.13;15.40;;;;;;;;;;5007260;28;20048;-72
2022/08/11 05:09:18;;;;;;;20.63;15.02;;;;;;;;;;5022331;28;20934;-73
2022/08/11 05:11:46;;;;;;;18.63;15.65;;;;;;;;;;5021017;28;20044;-72
2022/08/11 05:36:58;;;;;;;20.15;14.68;;;;;;;;;;5007100;28;20035;-74
2022/08/11 05:58:39;;;;;;;15.52;12.15;;;;;;;;;;5009384;28;20113;-71
2022/08/11 06:01:05;;;;;;;12.68;11.25;;;;;;;;;;5011626;28;20246;-72
2022/08/11 06:04:12;;;;;;;14.48;11.18;;;;;;;;;;5024611;28;20068;-72
2022/08/11 06:06:21;;;;;;;15.68;12.40;;;;;;;;;;5010613;28;20106;-71
2022/08/11 06:08:51;;;;;;;14.52;10.35;;;;;;;;;;5024435;28;20100;-72
2022/08/11 06:11:18;;;;;;;14.57;10.70;;;;;;;;;;5015511;28;20520;-71
2022/08/11 06:13:44;;;;;;;14.18;10.60;;;;;;;;;;5014472;28;20893;-71
2022/08/11 06:16:13;;;;;;;12.73;10.10;;;;;;;;;;5012024;28;20440;-73
2022/08/11 06:18:38;;;;;;;13.80;10.05;;;;;;;;;;5010082;28;20371;-73
2022/08/11 06:21:08;;;;;;;15.15;10.13;;;;;;;;;;5011187;28;20033;-73
2022/08/11 06:23:44;;;;;;;15.00;9.90;;;;;;;;;;5014281;28;20032;-72
2022/08/11 06:26:15;;;;;;;15.10;10.00;;;;;;;;;;5016201;28;20089;-73
2022/08/11 06:28:43;;;;;;;12.65;9.88;;;;;;;;;;5010515;28;20122;-73
2022/08/11 06:31:27;;;;;;;13.43;9.75;;;;;;;;;;5011752;28;20193;-73
2022/08/11 06:33:55;;;;;;;12.35;9.77;;;;;;;;;;5010362;28;20068;-73
2022/08/11 06:36:39;;;;;;;13.07;9.07;;;;;;;;;;5011140;28;20029;-74
2022/08/11 06:39:04;;;;;;;11.30;8.70;;;;;;;;;;5009612;28;20051;-74
2022/08/11 06:41:36;;;;;;;9.63;7.70;;;;;;;;;;5025263;28;20033;-74
2022/08/11 06:44:11;;;;;;;9.02;7.30;;;;;;;;;;5013598;28;20539;-74
2022/08/11 06:46:49;;;;;;;10.30;6.78;;;;;;;;;;5009779;28;20305;-74
2022/08/11 06:52:03;;;;;;;7.93;5.95;;;;;;;;;;5010566;28;20543;-74
2022/08/11 06:54:32;;;;;;;8.43;5.38;;;;;;;;;;5024900;28;20107;-75
2022/08/11 07:02:32;;;;;;;8.00;5.85;;;;;;;;;;5010240;28;20363;-73
2022/08/11 07:05:15;;;;;;;7.10;5.50;;;;;;;;;;5010125;28;20132;-71
2022/08/11 07:16:17;;;;;;;7.85;5.18;;;;;;;;;;5045547;28;20519;-74
2022/08/11 07:29:53;;;;;;;6.35;4.30;;;;;;;;;;5040348;28;20078;-74
2022/08/11 07:32:23;;;;;;;6.53;4.18;;;;;;;;;;5043110;28;20037;-72
2022/08/11 07:34:52;;;;;;;10.13;4.07;;;;;;;;;;5048104;28;20525;-73
2022/08/11 07:37:19;;;;;;;5.57;3.95;;;;;;;;;;5047542;28;20043;-73
2022/08/11 07:39:45;;;;;;;8.82;4.85;;;;;;;;;;5033063;28;20257;-77
2022/08/11 07:42:12;;;;;;;8.40;4.55;;;;;;;;;;5013319;28;20723;-71
2022/08/11 07:52:52;;;;;;;5.70;4.05;;;;;;;;;;5038525;28;20275;-76
2022/08/11 07:55:19;;;;;;;7.88;3.90;;;;;;;;;;5045938;28;20036;-76
2022/08/11 08:19:47;;;;;;;8.10;2.83;;;;;;;;;;5020503;28;20191;-71
2022/08/11 08:22:20;;;;;;;4.95;2.80;;;;;;;;;;5021971;28;20360;-72
2022/08/11 08:24:46;;;;;;;6.63;2.75;;;;;;;;;;5018394;28;20082;-72
2022/08/11 08:27:14;;;;;;;5.85;2.45;;;;;;;;;;5019018;28;20267;-72
2022/08/11 08:32:31;;;;;;;6.43;2.30;;;;;;;;;;5018853;28;20044;-72
2022/08/11 08:34:57;;;;;;;6.53;2.15;;;;;;;;;;5019025;28;20119;-72
2022/08/11 08:37:23;;;;;;;5.85;2.30;;;;;;;;;;5022372;28;20383;-72
2022/08/11 08:39:49;;;;;;;6.20;2.08;;;;;;;;;;5021471;28;20426;-73
2022/08/11 08:42:22;;;;;;;5.05;1.83;;;;;;;;;;5020010;28;20453;-71
2022/08/11 08:44:50;;;;;;;3.78;1.90;;;;;;;;;;5020889;28;20040;-73
2022/08/11 08:47:17;;;;;;;3.15;1.52;;;;;;;;;;5017820;28;20588;-72
2022/08/11 08:49:57;;;;;;;2.85;1.40;;;;;;;;;;5033778;28;20059;-73
2022/08/11 08:52:27;;;;;;;3.78;1.60;;;;;;;;;;5021095;28;20287;-72
2022/08/11 08:54:54;;;;;;;4.45;1.48;;;;;;;;;;5018967;28;20036;-71
2022/08/11 08:57:21;;;;;;;4.65;1.70;;;;;;;;;;5033537;28;20041;-72
2022/08/11 08:59:48;;;;;;;3.13;1.60;;;;;;;;;;5020130;28;20045;-72
2022/08/11 09:02:14;;;;;;;3.35;1.48;;;;;;;;;;5020699;28;20045;-72
2022/08/11 09:04:43;;;;;;;5.32;1.40;;;;;;;;;;5019183;28;20033;-71
2022/08/11 09:07:14;;;;;;;4.72;1.50;;;;;;;;;;5017015;28;20689;-73
2022/08/11 09:09:39;;;;;;;;;;;;;;;;;;5033628;28;20444;-73
2022/08/11 09:12:04;;;;;;;3.80;1.23;;;;;;;;;;5018933;28;20565;-72
2022/08/11 09:17:26;;;;;;;5.03;1.33;;;;;;;;;;5018661;28;20065;-72
2022/08/11 09:19:59;;;;;;;3.65;1.30;;;;;;;;;;5019208;28;20286;-72
2022/08/11 09:27:58;;;;;;;4.60;1.35;;;;;;;;;;5018782;28;20037;-71
2022/08/11 09:30:24;;;;;;;3.90;1.38;;;;;;;;;;5031109;28;20139;-73
2022/08/11 09:32:52;;;;;;;3.25;1.20;;;;;;;;;;5018221;28;20568;-71
2022/08/11 09:35:19;;;;;;;2.80;1.33;;;;;;;;;;5013853;28;20973;-72
2022/08/11 09:40:29;;;;;;;2.95;1.38;;;;;;;;;;5016874;28;20025;-72
2022/08/11 09:45:50;;;;;;;5.55;1.15;;;;;;;;;;5018018;28;20085;-72
2022/08/11 09:48:18;;;;;;;7.22;1.50;;;;;;;;;;5016292;28;20468;-74
2022/08/11 09:50:46;;;;;;;1.90;1.27;;;;;;;;;;5023128;28;21369;-74
2022/08/11 09:53:14;;;;;;;3.90;1.02;;;;;;;;;;5033440;28;20043;-72
2022/08/11 09:55:39;;;;;;;3.80;1.30;;;;;;;;;;5021694;28;20042;-73
2022/08/11 09:58:15;;;;;;;6.38;1.73;;;;;;;;;;5018332;28;20577;-72
2022/08/11 10:00:41;;;;;;;2.95;1.30;;;;;;;;;;5032546;28;20431;-72
2022/08/11 10:03:08;;;;;;;4.07;1.38;;;;;;;;;;5020457;28;20132;-73
2022/08/11 10:08:19;;;;;;;3.03;1.10;;;;;;;;;;5020722;28;20130;-72
2022/08/11 10:10:45;;;;;;;6.13;1.40;;;;;;;;;;5014200;28;20110;-73
2022/08/11 10:13:16;;;;;;;3.38;1.17;;;;;;;;;;5007147;28;20028;-72
2022/08/11 10:15:44;;;;;;;2.70;1.33;;;;;;;;;;5013145;28;20751;-73
2022/08/11 10:21:18;;;;;;;4.40;1.58;;;;;;;;;;5003618;28;20029;-73
2022/08/11 10:34:47;;;;;;;3.47;1.25;;;;;;;;;;5022610;28;20131;-72
2022/08/11 10:37:13;;;;;;;2.42;1.40;;;;;;;;;;5024771;28;20194;-72
2022/08/11 10:39:39;;;;;;;4.53;1.40;;;;;;;;;;5020127;28;20582;-72
2022/08/11 10:44:53;;;;;;;3.78;1.30;;;;;;;;;;5020162;28;20122;-71
2022/08/11 10:47:33;;;;;;;5.55;1.50;;;;;;;;;;5037000;28;20371;-72
2022/08/11 11:00:59;;;;;;;2.60;1.60;;;;;;;;;;5021662;28;20658;-71
2022/08/11 11:03:25;;;;;;;5.63;1.63;;;;;;;;;;5017760;28;20040;-72
2022/08/11 11:05:52;;;;;;;3.88;1.33;;;;;;;;;;5024955;28;20048;-73
2022/08/11 11:11:05;;;;;;;5.93;1.70;;;;;;;;;;5025854;28;20102;-73
2022/08/11 11:17:54;;;;;;;5.20;1.83;;;;;;;;;;5027896;28;20669;-78
2022/08/11 11:19:09;;;;;;;6.45;1.70;;;;;;;;;;5024358;28;20118;-74
2022/08/11 11:21:36;;;;;;;7.65;1.70;;;;;;;;;;5027221;28;20036;-73
2022/08/11 11:24:16;;;;;;;5.60;1.80;;;;;;;;;;5025713;28;20484;-73
2022/08/11 11:26:49;;;;;;;5.20;1.55;;;;;;;;;;5025713;28;20080;-76
2022/08/11 11:29:33;;;;;;;3.50;1.98;;;;;;;;;;5042477;27;20037;-78
2022/08/11 11:32:22;;;;;;;2.75;1.60;;;;;;;;;;5014480;28;20041;-72
2022/08/11 11:35:17;;;;;;;3.15;1.55;;;;;;;;;;5014073;28;20074;-80
2022/08/11 11:37:47;;;;;;;2.60;1.35;;;;;;;;;;5018817;28;20117;-74
2022/08/11 11:40:14;;;;;;;2.60;1.45;;;;;;;;;;5028245;28;20108;-74
2022/08/11 11:42:41;;;;;;;5.50;1.50;;;;;;;;;;5027121;28;20033;-73
2022/08/11 11:45:07;;;;;;;4.28;1.55;;;;;;;;;;5033116;28;20707;-74
2022/08/11 11:47:34;;;;;;;6.75;1.67;;;;;;;;;;5025130;28;20094;-76
2022/08/11 11:50:00;;;;;;;5.38;1.38;;;;;;;;;;5023982;28;20032;-72
2022/08/11 11:52:25;;;;;;;11.73;1.58;;;;;;;;;;5035388;28;20091;-72
2022/08/11 11:54:53;;;;;;;4.50;2.00;;;;;;;;;;5019326;28;20036;-73
2022/08/11 12:02:52;;;;;;;2.50;1.55;;;;;;;;;;5022030;28;20235;-71
2022/08/11 12:05:18;;;;;;;5.72;1.80;;;;;;;;;;5021685;28;20040;-73
2022/08/11 12:10:29;;;;;;;3.97;1.75;;;;;;;;;;5016285;28;20866;-71
2022/08/11 12:15:39;;;;;;;8.52;1.70;;;;;;;;;;5020596;28;20040;-72
2022/08/11 12:18:08;;;;;;;5.00;1.60;;;;;;;;;;5020596;28;20162;-72
2022/08/11 12:20:34;;;;;;;4.55;1.75;;;;;;;;;;5020466;28;20040;-72
2022/08/11 12:28:32;;;;;;;5.70;1.73;;;;;;;;;;5021243;28;20656;-73
2022/08/11 12:30:57;;;;;;;3.95;1.70;;;;;;;;;;5020744;28;20035;-73
2022/08/11 12:33:23;;;;;;;9.48;1.70;;;;;;;;;;5036140;28;20269;-72
2022/08/11 12:35:54;;;;;;;4.13;1.60;;;;;;;;;;5023865;28;20048;-72
2022/08/11 12:38:22;;;;;;;6.18;1.67;;;;;;;;;;5024748;28;20078;-73
2022/08/11 12:46:21;;;;;;;4.30;1.38;;;;;;;;;;5019316;28;20074;-71
2022/08/11 12:51:58;;;;;;;7.32;1.77;;;;;;;;;;5017845;28;20032;-72
2022/08/11 12:54:48;;;;;;;2.22;1.23;;;;;;;;;;5020015;28;20387;-72
2022/08/11 13:05:45;;;;;;;3.72;1.40;;;;;;;;;;5020000;28;21866;-73
2022/08/11 13:08:10;;;;;;;3.25;1.42;;;;;;;;;;5018580;28;20137;-72
2022/08/11 13:13:20;;;;;;;3.53;1.30;;;;;;;;;;5018213;28;20025;-72
2022/08/11 13:15:51;;;;;;;4.30;1.33;;;;;;;;;;5018818;28;20128;-71
2022/08/11 13:18:22;;;;;;;5.47;1.50;;;;;;;;;;5018651;28;20490;-71
2022/08/11 13:20:56;;;;;;;2.47;1.52;;;;;;;;;;5016695;28;20033;-71
2022/08/11 13:23:23;;;;;;;4.85;1.40;;;;;;;;;;5020446;28;20037;-72
2022/08/11 13:25:50;;;;;;;3.15;1.40;;;;;;;;;;5020316;28;20423;-71
2022/08/11 13:28:18;;;;;;;5.30;1.75;;;;;;;;;;5018412;28;20033;-72
2022/08/11 13:33:28;;;;;;;4.55;1.40;;;;;;;;;;5033131;28;20405;-71
2022/08/11 13:35:54;;;;;;;5.82;1.40;;;;;;;;;;5020410;28;20040;-72
2022/08/11 13:38:21;;;;;;;3.40;1.33;;;;;;;;;;5020625;28;21777;-71
2022/08/11 13:40:48;;;;;;;5.78;1.55;;;;;;;;;;5018242;28;20179;-73
2022/08/11 13:43:14;;;;;;;4.97;1.48;;;;;;;;;;5016658;28;20143;-74
2022/08/11 13:45:40;;;;;;;6.82;1.58;;;;;;;;;;5018129;28;20028;-71
2022/08/11 13:48:07;;;;;;;9.10;1.55;;;;;;;;;;5018563;28;20033;-69
2022/08/11 13:53:20;;;;;;;2.95;1.30;;;;;;;;;;5015932;28;20024;-70
2022/08/11 13:55:47;;;;;;;10.52;1.50;;;;;;;;;;5016930;28;20585;-69
2022/08/11 13:58:13;;;;;;;4.50;1.40;;;;;;;;;;5017742;28;20457;-70
2022/08/11 14:00:40;;;;;;;3.17;1.38;;;;;;;;;;5031118;28;20071;-69
2022/08/11 14:03:11;;;;;;;5.43;1.48;;;;;;;;;;5017153;28;20543;-70
2022/08/11 14:05:37;;;;;;;4.97;1.48;;;;;;;;;;5016766;28;20531;-70
2022/08/11 14:08:08;;;;;;;2.88;1.60;;;;;;;;;;5021992;28;20040;-70
2022/08/11 14:10:34;;;;;;;7.07;1.60;;;;;;;;;;5020429;28;20558;-70
2022/08/11 14:15:46;;;;;;;4.68;1.50;;;;;;;;;;5020675;28;20477;-72
2022/08/11 14:18:26;;;;;;;3.83;1.65;;;;;;;;;;5019240;28;20068;-72
2022/08/11 14:23:39;;;;;;;3.72;1.70;;;;;;;;;;5021819;28;20123;-72
2022/08/11 14:26:27;;;;;;;4.47;1.65;;;;;;;;;;5021307;28;20308;-72
2022/08/11 14:28:55;;;;;;;5.28;1.52;;;;;;;;;;5019670;28;20113;-74
2022/08/11 14:31:24;;;;;;;8.43;3.08;;;;;;;;;;5019960;28;20296;-72
2022/08/11 14:33:51;;;;;;;35.25;31.70;;;;;;;;;;5018330;28;20320;-71
2022/08/11 14:36:16;;;;;;;20.70;2.70;;;;;;;;;;5019207;28;20032;-71
2022/08/11 14:38:42;;;;;;;164.02;13.77;;;;;;;;;;5020921;28;20137;-71
2022/08/11 14:49:26;;;;;;;30.73;22.35;;;;;;;;;;5020192;28;20052;-71
2022/08/11 14:51:53;;;;;;;11.48;2.75;;;;;;;;;;5021720;28;20413;-72
2022/08/11 14:57:05;;;;;;;19.02;1.60;;;;;;;;;;5018063;28;20591;-72
2022/08/11 14:59:31;;;;;;;53.42;11.32;;;;;;;;;;5019814;28;20044;-73
2022/08/11 15:04:40;;;;;;;15.13;1.50;;;;;;;;;;5022012;28;22156;-72
2022/08/11 15:07:06;;;;;;;6.43;1.60;;;;;;;;;;5017972;28;20444;-73
2022/08/11 15:09:33;;;;;;;23.67;2.92;;;;;;;;;;5020251;28;20162;-74
2022/08/11 15:12:08;;;;;;;3.95;1.30;;;;;;;;;;5036251;28;20567;-72
2022/08/11 15:17:20;;;;;;;8.85;1.40;;;;;;;;;;5033030;28;20059;-79
2022/08/11 15:25:18;;;;;;;2.58;1.35;;;;;;;;;;5026799;28;20029;-77
2022/08/11 15:39:09;;;;;;;3.67;1.42;;;;;;;;;;5026188;28;20041;-77
2022/08/11 15:47:10;;;;;;;3.10;1.45;;;;;;;;;;5021660;28;20078;-77
2022/08/11 15:49:40;;;;;;;5.93;1.70;;;;;;;;;;5026505;28;20437;-79
2022/08/11 15:52:07;;;;;;;3.67;1.70;;;;;;;;;;5027489;28;20112;-79
2022/08/11 15:54:34;;;;;;;3.88;1.40;;;;;;;;;;5026559;28;20062;-77
2022/08/11 15:57:00;;;;;;;3.30;1.48;;;;;;;;;;5025584;28;20119;-80
2022/08/11 16:05:05;;;;;;;3.53;1.50;;;;;;;;;;5023964;28;20041;-78
2022/08/11 16:07:34;;;;;;;2.83;1.40;;;;;;;;;;5024892;28;20045;-81
2022/08/11 16:10:05;;;;;;;3.00;1.33;;;;;;;;;;5038943;28;20071;-79
2022/08/11 16:12:34;;;;;;;6.30;1.60;;;;;;;;;;5033132;28;20561;-79
2022/08/11 16:17:56;;;;;;;3.90;1.50;;;;;;;;;;5023811;28;20732;-80
2022/08/11 16:20:23;;;;;;;5.10;1.70;;;;;;;;;;5038201;28;20098;-78
2022/08/11 16:22:50;;;;;;;3.92;1.70;;;;;;;;;;5024493;28;20483;-78
2022/08/11 16:25:21;;;;;;;4.30;1.48;;;;;;;;;;5026206;28;20082;-77
2022/08/11 16:27:49;;;;;;;3.75;1.52;;;;;;;;;;5023667;28;20036;-80
2022/08/11 16:30:15;;;;;;;3.88;1.70;;;;;;;;;;5022077;28;20463;-78
2022/08/11 16:32:44;;;;;;;5.20;1.55;;;;;;;;;;5018584;28;20975;-79
2022/08/11 16:40:52;;;;;;;3.42;1.70;;;;;;;;;;5036378;28;20055;-78
2022/08/11 16:48:46;;;;;;;5.30;1.60;;;;;;;;;;5019210;28;20263;-77
2022/08/11 16:51:12;;;;;;;5.80;1.65;;;;;;;;;;5027066;28;20041;-74
2022/08/11 16:53:39;;;;;;;5.40;2.05;;;;;;;;;;5042193;28;20355;-74
2022/08/11 16:56:05;;;;;;;5.40;1.98;;;;;;;;;;5041814;28;20101;-75
2022/08/11 17:01:19;;;;;;;4.22;1.98;;;;;;;;;;5042707;28;20501;-75
2022/08/11 17:14:54;;;;;;;5.35;1.70;;;;;;;;;;5017354;28;20059;-76
2022/08/11 17:17:25;;;;;;;4.50;1.63;;;;;;;;;;5017885;28;20144;-75
2022/08/11 17:19:54;;;;;;;5.47;1.80;;;;;;;;;;5013004;28;20951;-77
2022/08/11 17:25:05;;;;;;;3.00;1.70;;;;;;;;;;5015173;28;20404;-77
2022/08/11 17:27:31;;;;;;;4.13;1.80;;;;;;;;;;5018928;28;20048;-79
2022/08/11 17:29:58;;;;;;;5.32;2.00;;;;;;;;;;5015067;28;20037;-78
2022/08/11 17:35:30;;;;;;;7.57;2.03;;;;;;;;;;5018473;28;20089;-75
2022/08/11 17:38:16;;;;;;;6.88;1.70;;;;;;;;;;5017847;28;20098;-77
2022/08/11 17:49:06;;;;;;;5.05;2.20;;;;;;;;;;5016976;28;20032;-77
2022/08/11 17:59:51;;;;;;;5.85;1.98;;;;;;;;;;5036721;28;20052;-76
2022/08/11 18:05:10;;;;;;;5.43;2.00;;;;;;;;;;5035775;28;20048;-74
